Time;durP1;ratioP1;P1;durP2;ratioP2;P2;SDS_P1;SDS_P2;PMS_P1;PMS_P2;Temp;Humidity;BMP_temperature;BMP_pressure;BME280_temperature;BME280_humidity;BME280_pressure;Samples;Min_cycle;Max_cycle;Signal;HPM_P1;HPM_P2
2023/01/09 00:01:19;;;;;;;8.50;4.20;;;;;;;-143.84;92.62;43904.84;5092141;28;20844;-78
2023/01/09 00:03:47;;;;;;;3.60;3.40;;;;;;;-143.84;91.86;43914.38;5092226;28;20514;-77
2023/01/09 00:06:14;;;;;;;6.50;4.40;;;;;;;-143.84;92.22;43923.91;5092128;28;20482;-78
2023/01/09 00:08:43;;;;;;;4.63;3.80;;;;;;;-143.84;92.28;43918.19;5092108;28;20437;-78
2023/01/09 00:11:10;;;;;;;4.03;3.70;;;;;;;-143.84;91.72;43912.47;5091682;28;20485;-78
2023/01/09 00:13:38;;;;;;;5.57;4.10;;;;;;;-143.84;92.09;43948.63;5091955;28;20440;-78
2023/01/09 00:16:06;;;;;;;4.33;4.03;;;;;;;-143.84;91.92;43912.47;5092306;28;20485;-78
2023/01/09 00:18:34;;;;;;;6.40;4.50;;;;;;;-143.84;91.78;43910.56;5091928;28;20430;-78
2023/01/09 00:21:02;;;;;;;5.23;4.33;;;;;;;-143.84;91.75;43895.34;5092032;28;20434;-78
2023/01/09 00:23:29;;;;;;;5.23;4.83;;;;;;;-143.84;91.54;43916.28;5091728;28;20473;-78
2023/01/09 00:26:06;;;;;;;9.63;4.90;;;;;;;-143.84;91.66;43887.72;5092091;28;20842;-78
2023/01/09 00:28:33;;;;;;;7.87;5.80;;;;;;;-143.84;91.08;43922.00;5091677;28;20936;-78
2023/01/09 00:31:02;;;;;;;6.77;4.70;;;;;;;-143.84;91.28;43862.97;5091739;28;20437;-78
2023/01/09 00:33:32;;;;;;;9.23;4.77;;;;;;;-143.84;91.25;43904.84;5091953;28;20442;-78
2023/01/09 00:35:59;;;;;;;5.17;4.43;;;;;;;-143.84;91.39;43889.63;5095741;28;20426;-79
2023/01/09 00:38:27;;;;;;;3.70;3.40;;;;;;;-143.84;91.45;43880.13;5078305;28;20817;-79
2023/01/09 00:40:55;;;;;;;4.80;4.23;;;;;;;-143.84;91.26;43906.75;5075063;28;20483;-79
2023/01/09 00:43:27;;;;;;;10.30;4.43;;;;;;;-143.84;92.30;43933.41;5075213;28;20504;-78
2023/01/09 00:45:54;;;;;;;5.87;4.00;;;;;;;-143.84;92.11;43914.38;5075116;28;20429;-78
2023/01/09 00:48:25;;;;;;;4.50;4.20;;;;;;;-143.84;91.79;43908.66;5075113;28;20491;-78
2023/01/09 00:50:54;;;;;;;5.73;3.87;;;;;;;-143.84;91.97;43906.75;5090708;28;20532;-79
2023/01/09 00:53:23;;;;;;;9.50;4.43;;;;;;;-143.84;92.46;43920.09;5095213;28;20433;-78
2023/01/09 00:55:51;;;;;;;6.17;4.17;;;;;;;-143.84;92.90;43929.59;5095136;28;20921;-79
2023/01/09 00:58:19;;;;;;;4.40;4.00;;;;;;;-143.84;92.76;43904.84;5075092;28;20517;-79
2023/01/09 01:00:47;;;;;;;7.43;4.57;;;;;;;-143.84;91.87;43933.41;5074608;28;20982;-78
2023/01/09 01:03:14;;;;;;;13.53;4.00;;;;;;;-143.84;91.59;43893.44;5074695;28;20456;-78
2023/01/09 01:08:30;;;;;;;3.90;3.47;;;;;;;-143.84;91.73;43893.44;5088784;28;20942;-77
2023/01/09 01:10:58;;;;;;;5.30;3.77;;;;;;;-143.84;92.06;43916.28;5094960;28;20492;-77
2023/01/09 01:13:25;;;;;;;16.03;4.37;;;;;;;-143.84;92.66;43914.38;5094781;28;20978;-77
2023/01/09 01:15:53;;;;;;;6.43;4.40;;;;;;;-143.84;91.89;43910.56;5095034;28;20507;-78
2023/01/09 01:18:20;;;;;;;10.43;4.60;;;;;;;-143.84;92.38;43912.47;5094657;28;20443;-77
2023/01/09 01:20:47;;;;;;;6.50;4.03;;;;;;;-143.84;92.08;43925.78;5094801;28;20428;-77
2023/01/09 01:23:15;;;;;;;5.00;3.83;;;;;;;-143.84;91.97;43922.00;5094503;28;20441;-77
2023/01/09 01:25:42;;;;;;;7.87;4.50;;;;;;;-143.84;92.53;43923.91;5093399;28;20489;-78
2023/01/09 01:28:10;;;;;;;7.00;4.77;;;;;;;-143.84;92.47;43925.78;5093084;28;20976;-78
2023/01/09 01:30:40;;;;;;;5.80;4.10;;;;;;;-143.84;92.31;43920.09;5094587;28;20508;-77
2023/01/09 01:33:10;;;;;;;3.90;3.50;;;;;;;-143.84;91.60;43895.34;5094592;28;20440;-77
2023/01/09 01:35:38;;;;;;;12.53;4.20;;;;;;;-143.84;91.90;43908.66;5095110;28;20935;-78
2023/01/09 01:38:06;;;;;;;5.77;4.30;;;;;;;-143.84;92.20;43942.94;5094305;28;20424;-77
2023/01/09 01:40:33;;;;;;;5.87;4.07;;;;;;;-143.84;92.23;43912.47;5094390;28;20443;-77
2023/01/09 01:43:00;;;;;;;4.53;4.07;;;;;;;-143.84;91.61;43916.28;5094161;28;20446;-78
2023/01/09 01:45:29;;;;;;;13.53;4.40;;;;;;;-143.84;92.34;43914.38;5093611;28;20471;-77
2023/01/09 01:47:59;;;;;;;10.60;4.23;;;;;;;-143.84;92.28;43893.44;5094050;28;20961;-77
2023/01/09 01:50:34;;;;;;;5.73;3.90;;;;;;;-143.84;92.49;43904.84;5094296;28;20851;-78
2023/01/09 01:53:08;;;;;;;11.80;4.60;;;;;;;-143.84;93.08;43918.19;5093915;28;20498;-78
2023/01/09 01:55:39;;;;;;;4.27;3.90;;;;;;;-143.84;93.03;43931.50;5094286;28;20462;-78
2023/01/09 01:58:10;;;;;;;5.93;3.67;;;;;;;-143.84;92.77;43923.91;5093919;28;20450;-78
2023/01/09 02:00:42;;;;;;;5.90;3.57;;;;;;;-143.84;92.56;43922.00;5093831;28;20439;-79
2023/01/09 02:03:09;;;;;;;12.27;4.10;;;;;;;-143.84;91.84;43899.16;5094105;28;20436;-79
2023/01/09 02:05:39;;;;;;;11.30;3.80;;;;;;;-143.84;92.04;43922.00;5093947;28;20461;-78
2023/01/09 02:08:07;;;;;;;4.43;3.33;;;;;;;-143.84;92.30;43897.25;5093852;28;20433;-78
2023/01/09 02:10:36;;;;;;;3.67;3.30;;;;;;;-143.84;92.99;43923.91;5093728;28;20526;-78
2023/01/09 02:13:04;;;;;;;4.00;3.40;;;;;;;-143.84;91.95;43912.47;5093624;28;20472;-78
2023/01/09 02:15:41;;;;;;;3.83;2.87;;;;;;;-143.84;92.16;43906.75;5093825;28;20431;-79
2023/01/09 02:18:26;;;;;;;4.07;3.00;;;;;;;-143.84;91.83;43895.34;5093538;28;20441;-79
2023/01/09 02:20:58;;;;;;;14.23;3.53;;;;;;;-143.84;92.02;43925.78;5093547;28;20497;-78
2023/01/09 02:24:02;;;;;;;5.20;2.90;;;;;;;-143.84;92.19;43891.53;5093439;28;20955;-79
2023/01/09 02:26:51;;;;;;;6.80;3.23;;;;;;;-143.84;92.00;43941.03;5091238;28;20807;-78
2023/01/09 02:29:54;;;;;;;9.63;3.07;;;;;;;-143.84;92.11;43910.56;5093278;28;20426;-79
2023/01/09 02:32:40;;;;;;;5.60;3.30;;;;;;;-143.84;92.35;43912.47;5093025;28;20871;-77
2023/01/09 02:35:20;;;;;;;7.23;3.50;;;;;;;-143.84;93.31;43952.44;5092375;28;20462;-77
2023/01/09 02:37:58;;;;;;;6.30;3.23;;;;;;;-143.84;92.88;43914.38;5093302;28;20443;-77
2023/01/09 02:40:29;;;;;;;5.37;3.10;;;;;;;-143.84;93.23;43946.75;5093652;28;20502;-77
2023/01/09 02:42:59;;;;;;;14.47;5.70;;;;;;;-143.84;92.83;43946.75;5093436;28;20429;-77
2023/01/09 02:45:26;;;;;;;16.73;8.70;;;;;;;-143.84;93.40;43941.03;5092898;28;20558;-77
2023/01/09 02:47:55;;;;;;;7.13;4.90;;;;;;;-143.84;93.15;43929.59;5093501;28;20507;-77
2023/01/09 02:50:27;;;;;;;3.07;2.73;;;;;;;-143.84;92.60;43918.19;5093036;28;20439;-77
2023/01/09 02:53:18;;;;;;;11.50;3.43;;;;;;;-143.84;92.77;43920.09;5093013;28;20434;-77
2023/01/09 02:56:02;;;;;;;7.97;3.20;;;;;;;-143.84;93.11;43931.50;5059570;28;20509;-77
2023/01/09 02:58:49;;;;;;;6.33;3.03;;;;;;;-143.84;93.38;43914.38;5092627;28;20446;-78
2023/01/09 03:01:25;;;;;;;7.00;3.17;;;;;;;-143.84;92.97;43941.03;5092837;28;20451;-78
2023/01/09 03:04:04;;;;;;;8.33;3.10;;;;;;;-143.84;93.16;43914.38;5092618;28;20430;-77
2023/01/09 03:06:36;;;;;;;10.33;2.73;;;;;;;-143.84;92.86;43935.31;5092752;28;20442;-77
2023/01/09 03:09:06;;;;;;;4.83;2.53;;;;;;;-143.84;92.40;43935.31;5092266;28;20437;-77
2023/01/09 03:11:40;;;;;;;6.27;2.90;;;;;;;-143.84;92.17;43895.34;5092413;28;20490;-77
2023/01/09 03:14:12;;;;;;;9.87;2.30;;;;;;;-143.84;92.34;43933.41;5092988;28;20436;-77
2023/01/09 03:16:40;;;;;;;2.07;1.87;;;;;;;-143.84;91.80;43883.91;5092449;28;20431;-77
2023/01/09 03:19:14;;;;;;;9.80;2.20;;;;;;;-143.84;92.01;43935.31;5092517;28;20429;-76
2023/01/09 03:21:44;;;;;;;3.00;2.30;;;;;;;-143.84;92.05;43883.91;5092756;28;20498;-77
2023/01/09 03:24:11;;;;;;;5.90;2.33;;;;;;;-143.84;91.93;43908.66;5092184;28;20496;-77
2023/01/09 03:26:38;;;;;;;5.90;2.70;;;;;;;-143.84;92.26;43918.19;5092247;28;20411;-77
2023/01/09 03:29:05;;;;;;;2.60;2.40;;;;;;;-143.84;92.17;43918.19;5092386;28;20445;-77
2023/01/09 03:31:32;;;;;;;2.80;2.30;;;;;;;-143.84;92.46;43922.00;5092317;28;20463;-77
2023/01/09 03:34:00;;;;;;;3.53;2.27;;;;;;;-143.84;92.40;43920.09;5092403;28;20439;-77
2023/01/09 03:36:28;;;;;;;7.00;2.70;;;;;;;-143.84;92.60;43937.22;5092245;28;20435;-77
2023/01/09 03:38:55;;;;;;;4.80;2.00;;;;;;;-143.84;93.00;43918.19;5092299;28;20514;-77
2023/01/09 03:41:22;;;;;;;5.10;2.53;;;;;;;-143.84;92.95;43931.50;5092207;28;20431;-77
2023/01/09 03:43:49;;;;;;;5.00;2.70;;;;;;;-143.84;93.27;43948.63;5092162;28;20442;-77
2023/01/09 03:46:16;;;;;;;10.30;2.10;;;;;;;-143.84;93.71;43952.44;5091952;28;20999;-76
2023/01/09 03:48:44;;;;;;;3.00;2.27;;;;;;;-143.84;93.32;43948.63;5091961;28;20452;-77
2023/01/09 03:51:12;;;;;;;8.53;2.40;;;;;;;-143.84;93.41;43944.84;5092353;28;20442;-77
2023/01/09 03:53:41;;;;;;;12.03;2.90;;;;;;;-143.84;93.63;43946.75;5091927;28;20441;-77
2023/01/09 03:56:08;;;;;;;7.50;2.37;;;;;;;-143.84;94.08;43954.34;5092428;28;20925;-78
2023/01/09 03:58:35;;;;;;;14.00;2.23;;;;;;;-143.84;93.85;43971.47;5092455;28;20431;-77
2023/01/09 04:01:04;;;;;;;5.00;2.77;;;;;;;-143.84;94.33;43973.38;5091277;28;20464;-78
2023/01/09 04:03:32;;;;;;;10.20;2.53;;;;;;;-143.84;94.65;43982.91;5092086;28;20441;-78
2023/01/09 04:05:59;;;;;;;4.93;2.30;;;;;;;-143.84;95.28;43998.13;5092277;28;20477;-79
2023/01/09 04:08:26;;;;;;;5.47;2.50;;;;;;;-143.84;95.35;43990.53;5092357;28;20434;-76
2023/01/09 04:10:55;;;;;;;17.00;2.93;;;;;;;-143.84;95.02;43977.19;5096150;28;20477;-79
2023/01/09 04:13:22;;;;;;;9.43;2.93;;;;;;;-143.84;94.99;43973.38;5096138;28;20447;-78
2023/01/09 04:15:49;;;;;;;12.90;2.70;;;;;;;-143.84;93.96;43952.44;5096159;28;20804;-78
2023/01/09 04:18:16;;;;;;;9.03;2.60;;;;;;;-143.84;93.80;43967.69;5095818;28;20480;-76
2023/01/09 04:20:47;;;;;;;6.70;2.80;;;;;;;-143.84;93.88;43960.06;5095842;28;20440;-78
2023/01/09 04:23:15;;;;;;;3.90;2.87;;;;;;;-143.84;93.72;43950.53;5095708;28;20489;-79
2023/01/09 04:25:42;;;;;;;9.27;2.67;;;;;;;-143.84;93.42;43956.25;5095497;28;20465;-78
2023/01/09 04:28:10;;;;;;;5.17;2.57;;;;;;;-143.84;93.25;43948.63;5094931;28;20450;-78
2023/01/09 04:30:37;;;;;;;7.93;3.10;;;;;;;-143.84;93.76;43969.59;5095069;28;20991;-76
2023/01/09 04:33:04;;;;;;;8.20;2.60;;;;;;;-143.84;94.02;43988.63;5094566;28;20445;-78
2023/01/09 04:35:31;;;;;;;6.10;2.80;;;;;;;-143.84;94.23;43960.06;5094662;28;20449;-78
2023/01/09 04:37:59;;;;;;;6.30;2.77;;;;;;;-143.84;94.42;43979.09;5095584;28;20434;-79
2023/01/09 04:40:26;;;;;;;8.03;2.40;;;;;;;-143.84;93.88;43967.69;5095527;28;20437;-77
2023/01/09 04:42:54;;;;;;;9.30;2.60;;;;;;;-143.84;93.63;43969.59;5095416;28;20436;-77
2023/01/09 04:45:22;;;;;;;3.90;2.30;;;;;;;-143.84;93.86;43961.97;5095516;28;20465;-77
2023/01/09 04:47:49;;;;;;;9.93;2.80;;;;;;;-143.84;93.88;43961.97;5095632;28;20442;-78
2023/01/09 04:50:17;;;;;;;4.80;2.50;;;;;;;-143.84;94.40;43982.91;5095583;28;20435;-76
2023/01/09 04:52:44;;;;;;;7.53;2.70;;;;;;;-143.84;94.32;43973.38;5096044;28;20429;-77
2023/01/09 04:55:11;;;;;;;10.83;3.63;;;;;;;-143.84;94.39;43982.91;5095520;28;21010;-75
2023/01/09 04:57:38;;;;;;;9.73;2.60;;;;;;;-143.84;94.95;44005.75;5094808;28;20474;-78
2023/01/09 05:00:10;;;;;;;5.70;2.80;;;;;;;-143.84;94.99;43982.91;5094967;28;20446;-77
2023/01/09 05:02:40;;;;;;;13.20;6.70;;;;;;;-143.84;95.06;44001.94;5095091;28;20456;-77
2023/01/09 05:05:08;;;;;;;8.07;2.53;;;;;;;-143.84;95.53;44001.94;5094904;28;20473;-76
2023/01/09 05:07:35;;;;;;;8.27;3.10;;;;;;;-143.84;96.04;44028.59;5094972;28;20499;-75
2023/01/09 05:10:03;;;;;;;12.13;3.67;;;;;;;-143.84;95.90;44026.69;5094667;28;20495;-74
2023/01/09 05:12:30;;;;;;;6.97;3.27;;;;;;;-143.84;95.90;44015.25;5094948;28;20449;-76
2023/01/09 05:14:57;;;;;;;16.13;3.83;;;;;;;-143.84;95.43;44019.06;5094989;28;20442;-76
2023/01/09 05:17:24;;;;;;;11.67;4.67;;;;;;;-143.84;95.10;43977.19;5094955;28;20474;-76
2023/01/09 05:19:53;;;;;;;9.70;3.33;;;;;;;-143.84;93.88;43944.84;5094406;28;20441;-77
2023/01/09 05:22:20;;;;;;;9.33;2.73;;;;;;;-143.84;93.73;43952.44;5093736;28;20508;-77
2023/01/09 05:24:47;;;;;;;6.53;3.30;;;;;;;-143.84;94.05;43965.78;5094884;28;20431;-77
2023/01/09 05:27:15;;;;;;;10.27;3.83;;;;;;;-143.84;94.36;43971.47;5094447;28;20484;-77
2023/01/09 05:29:42;;;;;;;16.93;4.33;;;;;;;-143.84;94.71;43996.22;5095032;28;20516;-77
2023/01/09 05:32:09;;;;;;;9.60;3.50;;;;;;;-143.84;94.65;43979.09;5094162;28;20436;-77
2023/01/09 05:34:36;;;;;;;11.50;3.90;;;;;;;-143.84;93.71;43965.78;5093890;28;20434;-77
2023/01/09 05:37:04;;;;;;;4.27;3.40;;;;;;;-143.84;93.85;43937.22;5093805;28;20442;-77
2023/01/09 05:39:31;;;;;;;10.27;3.40;;;;;;;-143.84;93.80;43967.69;5094014;28;20436;-77
2023/01/09 05:41:59;;;;;;;16.77;3.73;;;;;;;-143.84;94.08;43967.69;5093646;28;20491;-77
2023/01/09 05:44:26;;;;;;;13.00;3.60;;;;;;;-143.84;93.79;43958.16;5093541;28;20443;-77
2023/01/09 05:46:53;;;;;;;9.30;3.43;;;;;;;-143.84;93.42;43942.94;5093830;28;20504;-75
2023/01/09 05:49:20;;;;;;;8.23;3.43;;;;;;;-143.84;93.21;43944.84;5093812;28;20443;-76
2023/01/09 05:51:47;;;;;;;12.23;3.67;;;;;;;-143.84;93.00;43954.34;5094413;28;20435;-76
2023/01/09 05:54:16;;;;;;;10.33;4.10;;;;;;;-143.84;93.44;43960.06;5094119;28;20434;-76
2023/01/09 05:56:43;;;;;;;14.70;4.60;;;;;;;-143.84;93.57;43937.22;5093835;28;20442;-75
2023/01/09 05:59:10;;;;;;;10.43;3.40;;;;;;;-143.84;93.11;43946.75;5094361;28;20981;-77
2023/01/09 06:01:37;;;;;;;16.43;4.20;;;;;;;-143.84;93.36;43956.25;5094269;28;20510;-77
2023/01/09 06:04:04;;;;;;;13.23;3.20;;;;;;;-143.84;93.20;43948.63;5093911;28;20438;-77
2023/01/09 06:06:31;;;;;;;13.77;3.40;;;;;;;-143.84;92.92;43942.94;5093588;28;20477;-77
2023/01/09 06:08:58;;;;;;;17.57;3.33;;;;;;;-143.84;93.05;43950.53;5094059;28;20455;-77
2023/01/09 06:11:27;;;;;;;6.03;3.37;;;;;;;-143.84;93.46;43941.03;5093076;28;20531;-76
2023/01/09 06:13:54;;;;;;;9.63;5.00;;;;;;;-143.84;93.50;43950.53;5094145;28;20954;-77
2023/01/09 06:16:21;;;;;;;15.47;2.80;;;;;;;-143.84;93.23;43946.75;5093767;28;21027;-76
2023/01/09 06:18:49;;;;;;;35.43;4.10;;;;;;;-143.84;92.73;43946.75;5093668;28;20490;-72
2023/01/09 06:21:16;;;;;;;17.60;3.80;;;;;;;-143.84;92.77;43929.59;5093716;28;20448;-77
2023/01/09 06:23:43;;;;;;;16.73;3.87;;;;;;;-143.84;93.00;43927.69;5093363;28;20433;-76
2023/01/09 06:26:11;;;;;;;18.43;3.60;;;;;;;-143.84;92.97;43931.50;5093240;28;20480;-77
2023/01/09 06:28:40;;;;;;;9.40;3.10;;;;;;;-143.84;93.14;43923.91;5093253;28;20923;-76
2023/01/09 06:31:07;;;;;;;11.97;3.43;;;;;;;-143.84;92.97;43933.41;5093208;28;20447;-74
2023/01/09 06:33:34;;;;;;;10.70;5.07;;;;;;;-143.84;91.87;43931.50;5093235;28;20429;-76
2023/01/09 06:36:01;;;;;;;16.77;3.70;;;;;;;-143.84;92.37;43937.22;5093212;28;20511;-75
2023/01/09 06:38:28;;;;;;;10.83;3.70;;;;;;;-143.84;93.05;43901.06;5093262;28;20434;-76
2023/01/09 06:40:55;;;;;;;16.53;5.53;;;;;;;-143.84;93.46;43960.06;5092504;28;20451;-76
2023/01/09 06:43:22;;;;;;;4.27;3.60;;;;;;;-143.84;93.65;43950.53;5093022;28;20492;-77
2023/01/09 06:45:51;;;;;;;11.30;3.70;;;;;;;-143.84;92.87;43946.75;5093135;28;20516;-77
2023/01/09 06:48:18;;;;;;;13.67;3.30;;;;;;;-143.84;92.52;43933.41;5093223;28;20854;-77
2023/01/09 06:50:45;;;;;;;7.53;4.37;;;;;;;-143.84;92.26;43914.38;5091292;28;20997;-77
2023/01/09 06:53:12;;;;;;;12.83;4.27;;;;;;;-143.84;91.86;43902.97;5092033;28;20436;-77
2023/01/09 06:55:40;;;;;;;10.27;3.60;;;;;;;-143.84;92.49;43918.19;5091984;28;20443;-78
2023/01/09 06:58:07;;;;;;;16.73;4.10;;;;;;;-143.84;92.68;43935.31;5092811;28;20435;-78
2023/01/09 07:00:34;;;;;;;10.93;3.63;;;;;;;-143.84;92.23;43902.97;5093024;28;20439;-77
2023/01/09 07:03:03;;;;;;;8.30;2.77;;;;;;;-143.84;91.00;43874.41;5093077;28;20473;-78
2023/01/09 07:05:30;;;;;;;9.63;3.97;;;;;;;-143.84;90.83;43866.78;5092470;28;20446;-79
2023/01/09 07:07:58;;;;;;;10.87;3.80;;;;;;;-143.84;91.71;43895.34;5095223;28;20439;-78
2023/01/09 07:10:25;;;;;;;11.33;3.50;;;;;;;-143.84;92.07;43925.78;5095572;28;21056;-78
2023/01/09 07:12:53;;;;;;;15.87;4.27;;;;;;;-143.84;92.77;43923.91;5096680;28;20920;-77
2023/01/09 07:15:20;;;;;;;22.93;4.10;;;;;;;-143.84;92.71;43927.69;5095648;28;20435;-77
2023/01/09 07:17:49;;;;;;;8.60;4.30;;;;;;;-143.84;93.09;43925.78;5093024;28;20500;-77
2023/01/09 07:20:18;;;;;;;10.13;4.23;;;;;;;-143.84;92.26;43937.22;5093567;28;20993;-81
2023/01/09 07:22:45;;;;;;;11.20;3.80;;;;;;;-143.84;91.12;43870.59;5095009;28;20435;-78
2023/01/09 07:25:13;;;;;;;14.43;4.07;;;;;;;-143.84;89.95;43859.19;5095746;28;20440;-78
2023/01/09 07:27:41;;;;;;;8.87;3.60;;;;;;;-143.84;89.52;43866.78;5093586;28;20483;-75
2023/01/09 07:30:10;;;;;;;12.17;3.43;;;;;;;-143.84;89.81;43862.97;5092825;28;20439;-76
2023/01/09 07:32:39;;;;;;;7.10;3.50;;;;;;;-143.84;90.39;43885.81;5091937;28;20444;-76
2023/01/09 07:35:08;;;;;;;6.93;3.30;;;;;;;-143.84;89.84;43832.53;5091566;28;20844;-76
2023/01/09 07:37:37;;;;;;;4.13;2.70;;;;;;;-143.84;89.42;43878.22;5090872;28;20435;-77
2023/01/09 07:40:05;;;;;;;10.27;3.87;;;;;;;-143.84;88.10;43895.34;5089567;28;20825;-76
2023/01/09 07:42:32;;;;;;;16.87;3.73;;;;;;;-143.84;88.02;43891.53;5092174;28;20439;-78
2023/01/09 07:45:00;;;;;;;16.87;4.03;;;;;;;-143.84;88.22;43893.44;5092372;28;20489;-77
2023/01/09 07:47:27;;;;;;;10.30;3.50;;;;;;;-143.84;87.89;43908.66;5092920;28;20471;-79
2023/01/09 07:49:54;;;;;;;8.70;3.13;;;;;;;-143.84;86.13;44154.22;5093888;28;21420;-79
2023/01/09 07:52:21;;;;;;;6.57;3.37;;;;;;;-143.84;86.25;44099.03;5092218;28;20431;-81
2023/01/09 07:54:50;;;;;;;9.20;3.20;;;;;;;-143.84;86.05;44123.78;5092075;28;20470;-81
2023/01/09 07:57:17;;;;;;;9.43;3.20;;;;;;;-143.84;85.88;44194.22;5091969;28;20451;-80
2023/01/09 07:59:45;;;;;;;12.77;3.53;;;;;;;-143.84;85.51;44251.31;5091866;28;20447;-82
2023/01/09 08:02:12;;;;;;;6.67;2.77;;;;;;;-143.84;85.14;44380.78;5092286;28;20503;-81
2023/01/09 08:04:39;;;;;;;11.10;2.93;;;;;;;-143.84;85.18;44376.97;5092056;28;20445;-82
2023/01/09 08:07:07;;;;;;;9.83;3.40;;;;;;;-143.84;86.03;44159.94;5092208;28;20481;-81
2023/01/09 08:09:34;;;;;;;14.70;3.50;;;;;;;-143.84;87.03;43982.91;5091591;28;20440;-81
2023/01/09 08:12:03;;;;;;;9.90;3.20;;;;;;;-143.84;86.99;44011.47;5091943;28;20482;-81
2023/01/09 08:14:30;;;;;;;8.00;3.50;;;;;;;-143.84;87.07;43996.22;5092207;28;20783;-81
2023/01/09 08:16:57;;;;;;;8.37;2.90;;;;;;;-143.84;86.48;44074.28;5092508;28;20443;-84
2023/01/09 08:19:24;;;;;;;15.70;3.57;;;;;;;-143.84;86.02;44139.00;5094730;28;20443;-82
2023/01/09 08:21:51;;;;;;;13.23;3.23;;;;;;;-143.84;86.56;44104.72;5093431;28;20784;-81
2023/01/09 08:24:19;;;;;;;10.60;3.50;;;;;;;-143.84;86.57;44057.16;5092804;28;20428;-83
2023/01/09 08:26:46;;;;;;;10.37;3.50;;;;;;;-143.84;86.46;44070.47;5094237;28;20524;-81
2023/01/09 08:29:14;;;;;;;11.20;3.47;;;;;;;-143.84;85.88;44171.38;5094009;28;20946;-82
2023/01/09 08:31:41;;;;;;;10.03;3.60;;;;;;;-143.84;85.78;44213.25;5093758;28;20420;-81
2023/01/09 08:34:09;;;;;;;9.10;3.33;;;;;;;-143.84;86.09;44121.88;5092926;28;20496;-79
2023/01/09 08:36:36;;;;;;;5.50;3.10;;;;;;;-143.84;87.05;43981.00;5092080;28;20434;-81
2023/01/09 08:39:03;;;;;;;12.40;3.23;;;;;;;-143.84;85.74;44194.22;5092416;28;20431;-80
2023/01/09 08:47:06;;;;;;;17.63;4.03;;;;;;;-143.84;87.81;43925.78;5090192;28;20469;-80
2023/01/09 08:49:33;;;;;;;10.77;3.87;;;;;;;-143.84;87.87;43899.16;5089102;28;20451;-81
2023/01/09 08:52:00;;;;;;;12.37;2.93;;;;;;;-143.84;87.96;43912.47;5089467;28;20528;-80
2023/01/09 08:54:28;;;;;;;6.53;3.50;;;;;;;-143.84;87.36;43937.22;5088430;28;20443;-80
2023/01/09 08:56:55;;;;;;;9.33;3.23;;;;;;;-143.84;86.54;44060.94;5092333;28;20451;-80
2023/01/09 08:59:24;;;;;;;9.10;3.63;;;;;;;-143.84;85.65;44258.94;5090580;28;20904;-80
2023/01/09 09:01:51;;;;;;;31.77;3.80;;;;;;;-143.84;85.04;44407.44;5089751;28;20451;-80
2023/01/09 09:04:18;;;;;;;11.13;3.80;;;;;;;-143.84;84.89;44376.97;5092945;28;20436;-80
2023/01/09 09:06:45;;;;;;;8.80;3.63;;;;;;;-143.84;85.21;44293.19;5096331;28;20468;-81
2023/01/09 09:09:13;;;;;;;11.77;3.33;;;;;;;-143.84;84.60;44475.97;5096988;28;20436;-81
2023/01/09 09:11:40;;;;;;;11.70;3.23;;;;;;;-143.84;84.43;44512.13;5095652;28;20505;-79
2023/01/09 09:16:52;;;;;;;10.30;3.63;;;;;;;-143.84;85.02;44357.94;5096041;28;20427;-81
2023/01/09 09:19:19;;;;;;;23.27;3.67;;;;;;;-143.84;84.22;44554.03;5095359;28;20443;-81
2023/01/09 09:21:46;;;;;;;11.93;3.30;;;;;;;-143.84;84.71;44401.72;5095110;28;20441;-83
2023/01/09 09:24:14;;;;;;;9.80;4.37;;;;;;;-143.84;84.34;44485.47;5094133;28;20954;-83
2023/01/09 09:26:41;;;;;;;12.63;4.27;;;;;;;-143.84;82.00;44866.28;5094833;28;20471;-83
2023/01/09 09:29:09;;;;;;;12.00;3.90;;;;;;;-143.84;82.27;44866.28;5094337;28;20510;-83
2023/01/09 09:31:37;;;;;;;6.07;3.73;;;;;;;-143.84;83.49;44713.94;5094416;28;20526;-82
2023/01/09 09:34:06;;;;;;;8.60;3.63;;;;;;;-143.84;83.53;44704.44;5094381;28;20508;-83
2023/01/09 09:36:34;;;;;;;8.77;3.40;;;;;;;-143.84;83.83;44630.19;5094338;28;20860;-84
2023/01/09 09:39:02;;;;;;;14.40;4.13;;;;;;;-143.84;84.61;44495.00;5093886;28;20439;-84
2023/01/09 09:44:46;;;;;;;17.87;3.97;;;;;;;-143.84;84.34;44548.31;5095511;28;20423;-82
2023/01/09 09:47:40;;;;;;;13.20;3.43;;;;;;;-143.84;84.60;44430.28;5094143;28;20468;-80
2023/01/09 09:50:23;;;;;;;7.90;3.53;;;;;;;-143.84;85.74;44211.34;5094310;28;20802;-81
2023/01/09 09:52:56;;;;;;;15.33;4.20;;;;;;;-143.84;85.40;44196.13;5094000;28;20937;-79
2023/01/09 09:55:31;;;;;;;10.63;3.40;;;;;;;-143.84;85.19;44369.34;5095985;28;20440;-79
2023/01/09 09:58:00;;;;;;;13.30;3.90;;;;;;;-143.84;85.83;44161.84;5095346;28;21180;-78
2023/01/09 10:00:28;;;;;;;14.70;4.50;;;;;;;-143.84;86.79;43986.72;5095024;28;20436;-78
2023/01/09 10:03:01;;;;;;;20.47;3.80;;;;;;;-143.84;86.87;43988.63;5098545;28;21036;-79
2023/01/09 10:05:34;;;;;;;4.77;3.20;;;;;;;-143.84;84.73;44432.19;5097857;28;20474;-78
2023/01/09 10:08:06;;;;;;;17.20;3.57;;;;;;;-143.84;83.51;44614.94;5093709;28;20515;-78
2023/01/09 10:10:38;;;;;;;12.20;3.73;;;;;;;-143.84;82.68;44814.88;5093133;28;21203;-79
2023/01/09 10:15:53;;;;;;;9.60;3.13;;;;;;;-143.84;82.73;44795.81;5092820;28;20435;-81
2023/01/09 10:18:31;;;;;;;9.60;3.70;;;;;;;-143.84;82.17;44784.41;5091652;28;20491;-81
2023/01/09 10:21:04;;;;;;;9.67;3.83;;;;;;;-143.84;81.80;44847.22;5093287;28;20430;-81
2023/01/09 10:23:59;;;;;;;7.43;4.10;;;;;;;-143.84;82.38;44807.25;5094464;28;20479;-79
2023/01/09 10:26:32;;;;;;;7.50;3.30;;;;;;;-143.84;82.15;44801.53;5092929;28;20503;-79
2023/01/09 10:29:18;;;;;;;41.07;5.07;;;;;;;-143.84;82.52;44807.25;5093153;28;20441;-78
2023/01/09 10:31:58;;;;;;;9.43;3.80;;;;;;;-143.84;82.64;44753.94;5093026;28;20477;-78
2023/01/09 10:34:38;;;;;;;23.47;4.37;;;;;;;-143.84;82.95;44717.75;5092918;28;20809;-80
2023/01/09 10:37:11;;;;;;;21.23;7.40;;;;;;;-143.84;83.31;44710.16;5094145;28;20506;-80
2023/01/09 10:39:42;;;;;;;13.73;4.10;;;;;;;-143.84;83.27;44651.13;5091399;28;20814;-78
2023/01/09 10:42:18;;;;;;;13.00;4.53;;;;;;;-143.84;83.66;44641.59;5073430;28;20442;-80
2023/01/09 10:44:54;;;;;;;22.37;4.50;;;;;;;-143.84;83.80;44616.84;5079968;28;20436;-76
2023/01/09 10:47:26;;;;;;;17.40;7.23;;;;;;;-143.84;84.90;44369.34;5092427;28;20984;-78
2023/01/09 10:49:55;;;;;;;12.63;4.27;;;;;;;-143.84;85.31;44222.75;5092030;28;20471;-78
2023/01/09 10:52:33;;;;;;;10.20;4.23;;;;;;;-143.84;85.76;44144.72;5092790;28;20441;-78
2023/01/09 10:55:05;;;;;;;16.23;7.03;;;;;;;-143.84;86.04;44119.97;5092914;28;21133;-78
2023/01/09 10:57:41;;;;;;;45.13;7.23;;;;;;;-143.84;86.80;43958.16;5092959;28;20478;-78
2023/01/09 11:00:17;;;;;;;23.30;6.77;;;;;;;-143.84;87.52;43899.16;5092608;28;20437;-78
2023/01/09 11:02:44;;;;;;;30.13;13.13;;;;;;;-143.84;87.85;43857.28;5092776;28;20447;-78
2023/01/09 11:05:16;;;;;;;21.90;7.10;;;;;;;-143.84;87.31;43946.75;5091798;28;20483;-78
2023/01/09 11:07:48;;;;;;;20.37;5.77;;;;;;;-143.84;87.42;43916.28;5093039;28;20466;-78
2023/01/09 11:10:16;;;;;;;12.40;6.70;;;;;;;-143.84;87.90;43922.00;5091149;28;20456;-78
2023/01/09 11:12:43;;;;;;;17.80;7.00;;;;;;;-143.84;88.13;43882.00;5092783;28;20447;-78
2023/01/09 11:15:34;;;;;;;28.27;9.00;;;;;;;-143.84;87.98;43916.28;5092565;28;20494;-78
2023/01/09 11:18:18;;;;;;;15.77;6.50;;;;;;;-143.84;88.19;43899.16;5076718;28;20447;-78
2023/01/09 11:20:46;;;;;;;8.83;5.80;;;;;;;-143.84;88.39;43861.06;5092847;28;20525;-78
2023/01/09 11:23:39;;;;;;;20.53;7.30;;;;;;;-143.84;88.49;43861.06;5092856;28;20840;-78
2023/01/09 11:26:07;;;;;;;22.30;9.90;;;;;;;-143.84;88.16;43901.06;5092700;28;20923;-78
2023/01/09 11:28:34;;;;;;;20.53;7.93;;;;;;;-143.84;88.04;43853.47;5092401;28;20481;-78
2023/01/09 11:31:02;;;;;;;14.23;7.13;;;;;;;-143.84;87.69;43891.53;5092259;28;20515;-78
2023/01/09 11:33:31;;;;;;;11.30;6.00;;;;;;;-143.84;87.36;43925.78;5092660;28;20437;-78
2023/01/09 11:36:06;;;;;;;16.50;5.73;;;;;;;-143.84;88.16;43885.81;5092385;28;20440;-78
2023/01/09 11:38:48;;;;;;;12.10;5.93;;;;;;;-143.84;88.58;43847.75;5092525;28;20856;-78
2023/01/09 11:41:20;;;;;;;13.43;6.10;;;;;;;-143.84;88.47;43885.81;5092245;28;20503;-78
2023/01/09 11:43:50;;;;;;;13.83;7.23;;;;;;;-143.84;87.79;43906.75;5092217;28;20434;-78